Time;durP1;ratioP1;P1;durP2;ratioP2;P2;SDS_P1;SDS_P2;PMS_P1;PMS_P2;Temp;Humidity;BMP_temperature;BMP_pressure;BME280_temperature;BME280_humidity;BME280_pressure;Samples;Min_cycle;Max_cycle;Signal;HPM_P1;HPM_P2
2022/02/08 00:01:34;;;;;;;2.33;1.07;;;;;;;;;;5014291;28;20061;-63
2022/02/08 00:04:00;;;;;;;1.40;0.70;;;;;;;;;;5014923;28;20041;-63
2022/02/08 00:06:44;;;;;;;3.60;0.57;;;;;;;;;;5013753;28;20056;-63
2022/02/08 00:09:12;;;;;;;1.70;0.67;;;;;;;;;;5014057;28;20041;-63
2022/02/08 00:11:38;;;;;;;1.67;0.67;;;;;;;;;;5014608;28;20471;-63
2022/02/08 00:14:04;;;;;;;1.63;0.70;;;;;;;;;;5015455;28;20037;-63
2022/02/08 00:16:30;;;;;;;0.87;0.47;;;;;;;;;;5014546;28;20030;-63
2022/02/08 00:18:56;;;;;;;3.50;0.67;;;;;;;;;;5015576;28;20025;-63
2022/02/08 00:21:22;;;;;;;0.40;0.40;;;;;;;;;;5013699;28;20366;-63
2022/02/08 00:23:48;;;;;;;2.23;0.73;;;;;;;;;;5015379;28;20034;-63
2022/02/08 00:26:14;;;;;;;0.93;0.43;;;;;;;;;;5013555;28;20133;-64
2022/02/08 00:28:40;;;;;;;1.10;0.70;;;;;;;;;;5014489;28;20060;-64
2022/02/08 00:31:06;;;;;;;1.47;0.83;;;;;;;;;;5010865;28;20476;-64
2022/02/08 00:33:32;;;;;;;1.47;0.67;;;;;;;;;;5014652;28;20057;-64
2022/02/08 00:36:29;;;;;;;3.53;0.70;;;;;;;;;;5015196;28;20200;-64
2022/02/08 00:45:22;;;;;;;2.57;0.60;;;;;;;;;;5012508;28;20431;-64
2022/02/08 00:47:55;;;;;;;1.17;0.60;;;;;;;;;;5015057;28;20077;-64
2022/02/08 00:50:21;;;;;;;1.43;0.43;;;;;;;;;;5014949;28;20121;-64
2022/02/08 00:52:47;;;;;;;1.20;0.47;;;;;;;;;;5013184;28;20029;-64
2022/02/08 00:55:13;;;;;;;3.63;1.20;;;;;;;;;;5015110;28;20030;-64
2022/02/08 00:57:39;;;;;;;2.33;0.63;;;;;;;;;;5013977;28;20029;-64
2022/02/08 01:00:07;;;;;;;2.13;0.50;;;;;;;;;;5014762;28;20391;-64
2022/02/08 01:02:33;;;;;;;3.33;0.50;;;;;;;;;;5013766;28;20026;-64
2022/02/08 01:05:02;;;;;;;2.13;0.33;;;;;;;;;;5014623;28;20061;-64
2022/02/08 01:07:28;;;;;;;1.47;0.50;;;;;;;;;;5012508;28;20026;-63
2022/02/08 01:09:58;;;;;;;0.60;0.37;;;;;;;;;;5014821;28;20528;-64
2022/02/08 01:12:25;;;;;;;2.67;0.30;;;;;;;;;;5012235;28;20033;-64
2022/02/08 01:14:52;;;;;;;0.40;0.20;;;;;;;;;;5014524;28;20032;-63
2022/02/08 01:17:20;;;;;;;0.97;0.40;;;;;;;;;;5012291;28;20527;-64
2022/02/08 01:19:54;;;;;;;2.83;0.40;;;;;;;;;;5014462;28;20022;-64
2022/02/08 01:22:20;;;;;;;2.13;0.60;;;;;;;;;;5013599;28;20045;-63
2022/02/08 01:24:48;;;;;;;1.70;0.40;;;;;;;;;;5014306;28;20419;-64
2022/02/08 01:27:15;;;;;;;2.97;0.50;;;;;;;;;;5013429;28;20018;-64
2022/02/08 01:29:54;;;;;;;0.70;0.60;;;;;;;;;;5014260;28;20030;-64
2022/02/08 01:32:37;;;;;;;1.10;0.50;;;;;;;;;;5011650;28;20075;-64
2022/02/08 01:35:30;;;;;;;1.93;0.70;;;;;;;;;;5014123;28;20454;-64
2022/02/08 01:38:08;;;;;;;3.03;0.40;;;;;;;;;;5013539;28;20037;-64
2022/02/08 01:41:03;;;;;;;1.63;0.60;;;;;;;;;;5014048;28;20041;-64
2022/02/08 01:49:11;;;;;;;3.33;0.97;;;;;;;;;;5009143;28;20555;-64
2022/02/08 01:51:38;;;;;;;2.33;0.93;;;;;;;;;;5014167;28;20032;-64
2022/02/08 01:54:04;;;;;;;2.13;0.87;;;;;;;;;;5013014;28;20026;-64
2022/02/08 01:56:30;;;;;;;1.93;0.87;;;;;;;;;;5014061;28;20048;-64
2022/02/08 01:58:56;;;;;;;3.67;1.20;;;;;;;;;;5012878;28;20026;-64
2022/02/08 02:01:22;;;;;;;2.77;1.07;;;;;;;;;;5014041;28;20028;-64
2022/02/08 02:03:48;;;;;;;2.73;1.77;;;;;;;;;;5011507;28;20129;-64
2022/02/08 02:06:14;;;;;;;1.83;1.50;;;;;;;;;;5013846;28;20049;-64
2022/02/08 02:08:40;;;;;;;1.67;1.27;;;;;;;;;;5011781;28;20037;-64
2022/02/08 02:11:08;;;;;;;3.27;1.60;;;;;;;;;;5012657;28;20036;-64
2022/02/08 02:16:03;;;;;;;2.53;1.30;;;;;;;;;;5013400;28;20113;-64
2022/02/08 02:18:29;;;;;;;2.73;1.67;;;;;;;;;;5012888;28;20037;-64
2022/02/08 02:20:55;;;;;;;3.57;1.47;;;;;;;;;;5013650;28;20022;-64
2022/02/08 02:23:21;;;;;;;4.03;1.73;;;;;;;;;;5011473;28;20108;-64
2022/02/08 02:25:47;;;;;;;4.13;1.70;;;;;;;;;;5013424;28;20022;-64
2022/02/08 02:28:13;;;;;;;5.67;1.60;;;;;;;;;;5012830;28;20082;-64
2022/02/08 02:30:39;;;;;;;2.93;1.70;;;;;;;;;;5012408;28;20033;-64
2022/02/08 02:33:07;;;;;;;2.57;1.50;;;;;;;;;;5014448;28;20124;-64
2022/02/08 02:35:34;;;;;;;4.40;1.50;;;;;;;;;;5021188;28;20026;-64
2022/02/08 02:38:00;;;;;;;3.43;1.70;;;;;;;;;;5025679;28;20033;-64
2022/02/08 02:40:27;;;;;;;2.27;1.60;;;;;;;;;;5012402;28;20034;-64
2022/02/08 02:42:54;;;;;;;4.13;1.43;;;;;;;;;;5012492;28;20037;-64
2022/02/08 02:45:21;;;;;;;2.33;1.30;;;;;;;;;;5013131;28;20026;-64
2022/02/08 02:47:50;;;;;;;5.07;1.70;;;;;;;;;;5012420;28;20046;-63
2022/02/08 02:50:16;;;;;;;2.37;1.43;;;;;;;;;;5013396;28;20033;-64
2022/02/08 02:52:42;;;;;;;2.40;1.60;;;;;;;;;;5010915;28;20419;-64
2022/02/08 02:55:08;;;;;;;3.60;2.10;;;;;;;;;;5013861;28;20084;-64
2022/02/08 02:57:34;;;;;;;4.83;2.00;;;;;;;;;;5016063;28;20026;-64
2022/02/08 03:00:08;;;;;;;2.27;1.47;;;;;;;;;;5015869;28;20435;-64
2022/02/08 03:02:41;;;;;;;2.10;1.53;;;;;;;;;;5013615;28;20029;-64
2022/02/08 03:18:45;;;;;;;3.80;1.73;;;;;;;;;;5016004;28;20057;-64
2022/02/08 03:21:12;;;;;;;4.37;2.30;;;;;;;;;;5015451;28;20026;-64
2022/02/08 03:23:38;;;;;;;5.77;2.27;;;;;;;;;;5016030;28;20067;-64
2022/02/08 03:26:04;;;;;;;3.37;2.10;;;;;;;;;;5016489;28;20024;-64
2022/02/08 03:28:30;;;;;;;3.87;2.23;;;;;;;;;;5015382;28;20108;-64
2022/02/08 03:30:57;;;;;;;2.77;1.77;;;;;;;;;;5015632;28;20569;-63
2022/02/08 03:33:25;;;;;;;3.03;2.30;;;;;;;;;;5014735;28;20025;-63
2022/02/08 03:35:53;;;;;;;4.57;2.13;;;;;;;;;;5016713;28;20475;-64
2022/02/08 03:38:26;;;;;;;3.93;2.10;;;;;;;;;;5015211;28;20026;-64
2022/02/08 03:40:53;;;;;;;3.87;2.53;;;;;;;;;;5013866;28;20060;-64
2022/02/08 03:45:51;;;;;;;3.53;2.40;;;;;;;;;;5016326;28;20029;-63
2022/02/08 03:48:20;;;;;;;3.73;2.20;;;;;;;;;;5015403;28;20038;-64
2022/02/08 03:50:52;;;;;;;5.30;2.40;;;;;;;;;;5015957;28;20018;-64
2022/02/08 03:53:18;;;;;;;4.43;2.27;;;;;;;;;;5015255;28;20109;-65
2022/02/08 03:55:44;;;;;;;4.70;2.60;;;;;;;;;;5016580;28;20053;-65
2022/02/08 03:58:11;;;;;;;4.13;2.70;;;;;;;;;;5015484;28;20037;-64
2022/02/08 04:00:50;;;;;;;5.30;2.80;;;;;;;;;;5016141;28;20033;-65
2022/02/08 04:03:17;;;;;;;6.00;3.10;;;;;;;;;;5015279;28;20511;-65
2022/02/08 04:05:47;;;;;;;9.50;2.77;;;;;;;;;;5015536;28;20140;-65
2022/02/08 04:08:15;;;;;;;4.27;2.87;;;;;;;;;;5013208;28;20506;-65
2022/02/08 04:10:43;;;;;;;6.23;3.03;;;;;;;;;;5015983;28;20033;-65
2022/02/08 04:18:39;;;;;;;5.15;2.30;;;;;;;;;;5014989;28;20034;-65
2022/02/08 04:32:24;;;;;;;4.70;2.97;;;;;;;;;;5015714;28;20037;-64
2022/02/08 04:35:35;;;;;;;5.60;2.90;;;;;;;;;;5013519;28;20057;-63
2022/02/08 04:43:08;;;;;;;4.03;2.70;;;;;;;;;;5014612;28;20085;-64
2022/02/08 04:48:07;;;;;;;5.70;3.43;;;;;;;;;;5014306;28;20045;-63
2022/02/08 04:50:35;;;;;;;6.47;3.20;;;;;;;;;;5015374;28;20022;-63
2022/02/08 04:53:09;;;;;;;6.07;3.40;;;;;;;;;;5012821;28;20034;-63
2022/02/08 05:01:00;;;;;;;4.10;2.90;;;;;;;;;;5013942;28;20132;-63
2022/02/08 05:41:49;;;;;;;5.45;3.70;;;;;;;;;;5014808;28;20044;-63
2022/02/08 05:46:52;;;;;;;8.43;4.00;;;;;;;;;;5014174;28;20041;-63
2022/02/08 05:49:29;;;;;;;8.43;4.23;;;;;;;;;;5012732;28;20091;-64
2022/02/08 05:52:21;;;;;;;9.70;4.80;;;;;;;;;;5012486;28;20033;-64
2022/02/08 05:54:44;;;;;;;8.93;4.77;;;;;;;;;;5012913;28;20487;-64
2022/02/08 05:57:11;;;;;;;8.17;4.33;;;;;;;;;;5012514;28;20049;-64
2022/02/08 05:59:37;;;;;;;8.47;4.60;;;;;;;;;;5013000;28;20373;-64
2022/02/08 06:02:03;;;;;;;8.17;5.10;;;;;;;;;;5011250;28;20036;-64
2022/02/08 06:04:33;;;;;;;10.33;4.73;;;;;;;;;;5009612;28;20164;-64
2022/02/08 06:06:59;;;;;;;11.53;5.23;;;;;;;;;;5012901;28;20026;-64
2022/02/08 06:09:25;;;;;;;7.43;4.57;;;;;;;;;;5013030;28;20092;-64
2022/02/08 06:11:51;;;;;;;9.20;4.70;;;;;;;;;;5013645;28;20053;-64
2022/02/08 06:14:25;;;;;;;10.30;4.70;;;;;;;;;;5012431;28;20072;-64
2022/02/08 06:16:52;;;;;;;8.32;4.68;;;;;;;;;;5013525;28;20017;-64
2022/02/08 06:19:18;;;;;;;7.23;4.77;;;;;;;;;;5012813;28;20448;-64
2022/02/08 06:21:44;;;;;;;10.10;5.00;;;;;;;;;;5013376;28;20491;-64
2022/02/08 06:24:12;;;;;;;10.93;4.37;;;;;;;;;;5012863;28;20447;-65
2022/02/08 06:26:38;;;;;;;6.67;4.20;;;;;;;;;;5013363;28;20088;-65
2022/02/08 06:29:12;;;;;;;7.53;4.20;;;;;;;;;;5010898;28;20476;-65
2022/02/08 06:31:39;;;;;;;7.90;4.40;;;;;;;;;;5012955;28;20037;-65
2022/02/08 06:34:05;;;;;;;6.23;4.67;;;;;;;;;;5012571;28;20070;-65
2022/02/08 06:36:32;;;;;;;7.80;4.93;;;;;;;;;;5012062;28;20026;-65
2022/02/08 06:38:58;;;;;;;9.07;4.63;;;;;;;;;;5012437;28;20083;-65
2022/02/08 06:41:24;;;;;;;10.67;4.90;;;;;;;;;;5012045;28;20025;-65
2022/02/08 06:43:50;;;;;;;11.30;5.10;;;;;;;;;;5012291;28;20403;-64
2022/02/08 06:46:16;;;;;;;11.93;5.23;;;;;;;;;;5013230;28;20076;-64
2022/02/08 06:48:42;;;;;;;16.73;5.40;;;;;;;;;;5012289;28;20446;-65
2022/02/08 06:51:08;;;;;;;14.57;5.97;;;;;;;;;;5013480;28;20022;-65
2022/02/08 06:53:34;;;;;;;10.00;5.23;;;;;;;;;;5011109;28;20076;-65
2022/02/08 06:56:02;;;;;;;12.40;4.90;;;;;;;;;;5013113;28;20014;-64
2022/02/08 06:58:36;;;;;;;14.80;5.20;;;;;;;;;;5008865;28;20080;-64
2022/02/08 07:01:03;;;;;;;11.67;5.00;;;;;;;;;;5013491;28;20014;-64
2022/02/08 07:03:30;;;;;;;10.63;5.33;;;;;;;;;;5012376;28;20361;-64
2022/02/08 07:05:56;;;;;;;14.33;5.50;;;;;;;;;;5012148;28;20379;-65
2022/02/08 07:08:24;;;;;;;11.73;5.90;;;;;;;;;;5013306;28;20057;-65
2022/02/08 07:10:50;;;;;;;16.80;5.70;;;;;;;;;;5011165;28;20030;-65
2022/02/08 07:13:16;;;;;;;10.90;4.97;;;;;;;;;;5013335;28;20467;-65
2022/02/08 07:15:42;;;;;;;9.73;4.40;;;;;;;;;;5011853;28;20025;-64
2022/02/08 07:21:12;;;;;;;10.43;4.80;;;;;;;;;;5010786;28;20113;-64
2022/02/08 07:23:38;;;;;;;7.23;4.30;;;;;;;;;;5011404;28;20037;-65
2022/02/08 07:26:05;;;;;;;9.50;5.00;;;;;;;;;;5018735;28;20033;-64
2022/02/08 07:28:37;;;;;;;11.23;5.63;;;;;;;;;;5031994;28;20034;-64
2022/02/08 07:31:11;;;;;;;13.43;4.47;;;;;;;;;;5018060;28;20029;-64
2022/02/08 07:33:40;;;;;;;8.75;3.63;;;;;;;;;;5011131;28;20022;-64
2022/02/08 07:36:16;;;;;;;12.83;4.57;;;;;;;;;;5011239;28;20033;-64
2022/02/08 07:38:42;;;;;;;9.30;4.30;;;;;;;;;;5011327;28;20080;-64
2022/02/08 07:43:34;;;;;;;12.60;5.70;;;;;;;;;;5015105;28;20053;-65
2022/02/08 07:46:00;;;;;;;18.37;4.83;;;;;;;;;;5015117;28;20236;-65
2022/02/08 07:48:27;;;;;;;11.17;5.60;;;;;;;;;;5015888;28;20054;-65
2022/02/08 07:50:53;;;;;;;9.40;4.33;;;;;;;;;;5015255;28;20026;-65
2022/02/08 07:53:22;;;;;;;10.63;4.80;;;;;;;;;;5014887;28;20056;-65
2022/02/08 07:55:48;;;;;;;12.90;5.60;;;;;;;;;;5013939;28;20030;-64
2022/02/08 07:58:14;;;;;;;10.93;6.37;;;;;;;;;;5014831;28;20108;-64
2022/02/08 08:00:41;;;;;;;13.97;5.77;;;;;;;;;;5014442;28;20033;-64
2022/02/08 08:03:08;;;;;;;13.73;5.23;;;;;;;;;;5015202;28;20032;-64
2022/02/08 08:05:34;;;;;;;8.43;4.77;;;;;;;;;;5013542;28;20061;-64
2022/02/08 08:08:00;;;;;;;9.40;4.37;;;;;;;;;;5014495;28;20022;-64
2022/02/08 08:10:30;;;;;;;7.83;4.47;;;;;;;;;;5013983;28;20029;-64
2022/02/08 08:12:57;;;;;;;8.57;4.50;;;;;;;;;;5015610;28;20030;-64
2022/02/08 08:15:41;;;;;;;11.03;4.47;;;;;;;;;;5014731;28;20056;-64
2022/02/08 08:20:59;;;;;;;10.13;4.53;;;;;;;;;;5006213;28;20471;-64
2022/02/08 08:23:25;;;;;;;8.03;3.93;;;;;;;;;;5011987;28;20092;-64
2022/02/08 08:25:51;;;;;;;7.07;4.23;;;;;;;;;;5004323;28;20029;-65
2022/02/08 08:28:17;;;;;;;11.20;5.00;;;;;;;;;;5014894;28;20022;-64
2022/02/08 08:30:43;;;;;;;13.73;5.10;;;;;;;;;;5012430;28;20132;-64
2022/02/08 08:33:09;;;;;;;14.70;5.80;;;;;;;;;;5014852;28;20519;-64
2022/02/08 08:35:37;;;;;;;10.10;5.33;;;;;;;;;;5012863;28;20026;-64
2022/02/08 08:38:06;;;;;;;11.40;4.77;;;;;;;;;;5013812;28;20152;-64
2022/02/08 08:40:55;;;;;;;15.00;6.43;;;;;;;;;;5013630;28;20436;-64
2022/02/08 08:51:44;;;;;;;9.35;3.97;;;;;;;;;;5014094;28;20096;-65
2022/02/08 08:54:10;;;;;;;9.73;4.95;;;;;;;;;;5012980;28;20041;-64
2022/02/08 08:56:40;;;;;;;10.90;5.03;;;;;;;;;;5013624;28;20084;-64
2022/02/08 08:59:06;;;;;;;12.57;4.47;;;;;;;;;;5014860;28;20025;-64
2022/02/08 09:01:32;;;;;;;10.57;5.23;;;;;;;;;;5013737;28;20030;-64
2022/02/08 09:03:58;;;;;;;11.87;5.40;;;;;;;;;;5013761;28;20044;-64
2022/02/08 09:06:25;;;;;;;17.30;5.67;;;;;;;;;;5012121;28;20068;-64
2022/02/08 09:08:51;;;;;;;8.67;4.90;;;;;;;;;;5012231;28;20065;-64
2022/02/08 09:14:34;;;;;;;8.90;3.90;;;;;;;;;;5010182;28;20450;-68
2022/02/08 09:17:28;;;;;;;10.37;4.60;;;;;;;;;;5012041;28;20087;-68
2022/02/08 09:25:28;;;;;;;10.97;5.33;;;;;;;;;;5014327;28;20033;-68
2022/02/08 09:28:09;;;;;;;11.43;4.90;;;;;;;;;;5013460;28;20153;-68
2022/02/08 09:30:40;;;;;;;7.63;4.80;;;;;;;;;;5014132;28;20022;-68
2022/02/08 09:33:06;;;;;;;9.77;4.73;;;;;;;;;;5012291;28;20041;-67
2022/02/08 09:35:32;;;;;;;11.60;5.27;;;;;;;;;;5012686;28;20030;-68
2022/02/08 09:37:58;;;;;;;13.03;5.57;;;;;;;;;;5013037;28;20048;-68
2022/02/08 09:40:25;;;;;;;9.43;4.97;;;;;;;;;;5012712;28;20030;-67
2022/02/08 09:42:53;;;;;;;11.50;4.93;;;;;;;;;;5014339;28;20514;-68
2022/02/08 09:45:20;;;;;;;13.17;5.20;;;;;;;;;;5020102;28;20139;-68
2022/02/08 09:50:26;;;;;;;9.43;5.03;;;;;;;;;;5013392;28;20435;-68
2022/02/08 09:52:56;;;;;;;11.20;5.33;;;;;;;;;;5012658;28;20419;-68
2022/02/08 09:55:23;;;;;;;11.27;5.80;;;;;;;;;;5013459;28;20046;-68
2022/02/08 09:57:49;;;;;;;8.87;5.23;;;;;;;;;;5012728;28;20523;-68
2022/02/08 10:00:16;;;;;;;10.60;5.50;;;;;;;;;;5013672;28;20061;-68
2022/02/08 10:02:42;;;;;;;11.87;5.23;;;;;;;;;;5012519;28;20026;-68
2022/02/08 10:05:09;;;;;;;11.77;4.93;;;;;;;;;;5013252;28;20041;-68
2022/02/08 10:07:36;;;;;;;10.40;5.80;;;;;;;;;;5013000;28;20406;-68
2022/02/08 10:10:03;;;;;;;11.13;5.30;;;;;;;;;;5013351;28;20387;-68
2022/02/08 10:23:37;;;;;;;14.57;7.37;;;;;;;;;;5013086;28;20484;-69
2022/02/08 10:26:08;;;;;;;13.00;6.50;;;;;;;;;;5011934;28;20028;-69
2022/02/08 10:28:52;;;;;;;15.10;6.00;;;;;;;;;;5012983;28;20026;-69
2022/02/08 10:31:59;;;;;;;11.27;6.67;;;;;;;;;;5012513;28;20048;-69
2022/02/08 10:39:58;;;;;;;18.43;6.57;;;;;;;;;;5013247;28;20089;-69
2022/02/08 10:42:24;;;;;;;11.50;6.30;;;;;;;;;;5009931;28;20054;-69
2022/02/08 10:44:50;;;;;;;15.20;7.30;;;;;;;;;;5012885;28;20458;-69
2022/02/08 10:47:16;;;;;;;14.83;6.80;;;;;;;;;;5011961;28;20029;-68
2022/02/08 10:49:43;;;;;;;12.40;6.90;;;;;;;;;;5011584;28;20121;-69
2022/02/08 10:52:10;;;;;;;14.13;6.97;;;;;;;;;;5012320;28;20105;-69
2022/02/08 10:54:42;;;;;;;10.13;8.00;;;;;;;;;;5013428;28;20060;-70
2022/02/08 10:57:15;;;;;;;16.60;7.67;;;;;;;;;;5012446;28;20026;-69
2022/02/08 10:59:58;;;;;;;13.00;7.13;;;;;;;;;;5011660;28;20443;-69
2022/02/08 11:02:29;;;;;;;12.27;7.00;;;;;;;;;;5012258;28;20026;-68
2022/02/08 11:05:06;;;;;;;17.70;6.83;;;;;;;;;;5011684;28;20510;-68
2022/02/08 11:12:57;;;;;;;13.30;8.03;;;;;;;;;;5008409;28;20084;-69
2022/02/08 11:21:00;;;;;;;13.47;7.90;;;;;;;;;;5017020;28;20037;-69
2022/02/08 11:23:45;;;;;;;12.43;7.27;;;;;;;;;;5015685;28;20037;-69
2022/02/08 11:26:13;;;;;;;14.70;8.43;;;;;;;;;;5016788;28;20018;-69
2022/02/08 11:28:48;;;;;;;12.23;7.10;;;;;;;;;;5015825;28;20034;-68
2022/02/08 11:52:50;;;;;;;13.80;7.67;;;;;;;;;;5015329;28;20032;-68
2022/02/08 11:55:30;;;;;;;10.23;7.47;;;;;;;;;;5021567;28;20040;-68
2022/02/08 11:58:17;;;;;;;10.07;6.80;;;;;;;;;;5021343;28;20483;-68
2022/02/08 12:00:57;;;;;;;12.90;7.10;;;;;;;;;;5015234;28;20028;-68
2022/02/08 12:08:57;;;;;;;9.53;6.17;;;;;;;;;;5014618;28;20049;-67
2022/02/08 12:33:10;;;;;;;8.40;6.10;;;;;;;;;;5014371;28;20033;-68
2022/02/08 12:57:22;;;;;;;12.03;5.97;;;;;;;;;;5014128;28;20189;-67
2022/02/08 14:08:24;;;;;;;151.10;21.85;;;;;;;;;;5012755;28;20030;-67
2022/02/08 14:36:54;;;;;;;7.50;5.22;;;;;;;;;;5012213;28;20044;-64
2022/02/08 15:07:57;;;;;;;8.30;5.15;;;;;;;;;;5016942;28;20069;-64
2022/02/08 15:09:39;;;;;;;9.95;5.35;;;;;;;;;;5006366;28;20042;-62
2022/02/08 15:12:13;;;;;;;13.38;5.13;;;;;;;;;;5014245;28;20037;-63
2022/02/08 15:14:49;;;;;;;9.85;6.53;;;;;;;;;;5013858;28;20502;-64
2022/02/08 15:17:15;;;;;;;5.93;4.88;;;;;;;;;;5014959;28;20091;-64
2022/02/08 15:19:43;;;;;;;9.32;5.95;;;;;;;;;;5011532;28;20018;-63
2022/02/08 15:22:10;;;;;;;8.30;5.53;;;;;;;;;;5014414;28;20053;-63
2022/02/08 15:24:37;;;;;;;10.95;5.70;;;;;;;;;;5013296;28;20045;-63
2022/02/08 15:27:03;;;;;;;10.27;6.00;;;;;;;;;;5012907;28;20033;-63
2022/02/08 15:29:32;;;;;;;7.90;5.47;;;;;;;;;;5012136;28;20034;-63
2022/02/08 15:31:58;;;;;;;9.00;5.32;;;;;;;;;;5013359;28;20014;-63
2022/02/08 15:34:24;;;;;;;10.80;5.35;;;;;;;;;;5011025;28;20537;-63
2022/02/08 15:36:52;;;;;;;8.80;5.15;;;;;;;;;;5013117;28;20034;-63
2022/02/08 15:39:18;;;;;;;9.80;5.38;;;;;;;;;;5013548;28;20149;-63
2022/02/08 15:41:45;;;;;;;5.72;4.72;;;;;;;;;;5014534;28;20026;-64
2022/02/08 15:44:16;;;;;;;5.55;4.63;;;;;;;;;;5013263;28;20030;-63
2022/02/08 15:46:42;;;;;;;6.20;5.32;;;;;;;;;;5011218;28;20495;-63
2022/02/08 15:49:08;;;;;;;6.88;5.22;;;;;;;;;;5010876;28;20072;-64
2022/02/08 15:51:41;;;;;;;8.50;5.80;;;;;;;;;;5013935;28;20026;-63
2022/02/08 15:54:33;;;;;;;6.55;5.10;;;;;;;;;;5010606;28;20141;-63
2022/02/08 16:08:00;;;;;;;12.35;7.55;;;;;;;;;;5014228;28;20038;-63
2022/02/08 16:10:34;;;;;;;10.35;5.28;;;;;;;;;;5013542;28;20030;-63
2022/02/08 16:13:29;;;;;;;9.10;5.60;;;;;;;;;;5012304;28;20033;-64
2022/02/08 16:18:28;;;;;;;9.95;5.72;;;;;;;;;;5010668;28;20122;-64
2022/02/08 16:26:38;;;;;;;8.18;5.60;;;;;;;;;;4988974;28;20076;-64
2022/02/08 16:32:07;;;;;;;10.90;7.20;;;;;;;;;;5013287;28;20100;-64
2022/02/08 16:49:03;;;;;;;8.63;6.10;;;;;;;;;;5013602;28;20120;-64
2022/02/08 16:53:25;;;;;;;11.10;6.30;;;;;;;;;;5013190;28;20044;-64
2022/02/08 17:01:21;;;;;;;9.20;7.32;;;;;;;;;;5014689;28;20443;-64
2022/02/08 17:03:49;;;;;;;8.82;7.38;;;;;;;;;;5009104;28;20030;-64
2022/02/08 17:06:17;;;;;;;9.70;6.60;;;;;;;;;;4995203;28;20030;-64
2022/02/08 17:08:43;;;;;;;11.10;6.38;;;;;;;;;;5008837;28;20030;-64
2022/02/08 17:11:09;;;;;;;10.07;6.53;;;;;;;;;;5014601;28;20104;-64
2022/02/08 17:16:29;;;;;;;11.53;7.10;;;;;;;;;;4995168;28;20033;-64
2022/02/08 17:49:56;;;;;;;10.35;7.38;;;;;;;;;;5012705;28;20133;-64
2022/02/08 17:52:22;;;;;;;8.73;6.27;;;;;;;;;;5012904;28;20026;-64
2022/02/08 17:54:48;;;;;;;11.33;6.87;;;;;;;;;;5013912;28;20479;-64
2022/02/08 17:57:14;;;;;;;11.10;8.70;;;;;;;;;;5012961;28;20021;-64
2022/02/08 17:59:41;;;;;;;11.70;6.75;;;;;;;;;;5011853;28;20033;-64
2022/02/08 18:02:09;;;;;;;11.30;7.90;;;;;;;;;;5012130;28;20034;-64
2022/02/08 18:04:35;;;;;;;14.30;7.97;;;;;;;;;;5012594;28;20049;-65
2022/02/08 18:28:09;;;;;;;14.57;9.65;;;;;;;;;;5013828;28;20056;-64
2022/02/08 19:09:08;;;;;;;21.40;12.75;;;;;;;;;;5006638;28;20448;-70
2022/02/08 19:22:09;;;;;;;20.87;11.80;;;;;;;;;;4987435;28;20045;-71
2022/02/08 19:24:35;;;;;;;21.33;12.80;;;;;;;;;;4986901;28;20026;-69
2022/02/08 19:27:01;;;;;;;19.43;11.37;;;;;;;;;;4987683;28;20035;-70
2022/02/08 19:29:30;;;;;;;18.73;11.70;;;;;;;;;;4987400;28;20105;-69
2022/02/08 19:31:57;;;;;;;16.85;11.50;;;;;;;;;;4987773;28;20052;-69
2022/02/08 19:34:26;;;;;;;22.37;13.80;;;;;;;;;;4987949;28;20528;-71
2022/02/08 19:36:57;;;;;;;20.33;12.60;;;;;;;;;;4987332;28;20051;-71
2022/02/08 19:39:23;;;;;;;23.13;12.33;;;;;;;;;;4996182;28;20467;-70
2022/02/08 19:41:49;;;;;;;20.60;12.47;;;;;;;;;;5006699;28;20038;-70
2022/02/08 19:44:15;;;;;;;15.90;11.17;;;;;;;;;;4997677;28;20018;-69
2022/02/08 19:46:41;;;;;;;21.70;10.90;;;;;;;;;;5000321;28;20039;-68
2022/02/08 19:49:08;;;;;;;16.20;11.27;;;;;;;;;;5001123;28;20113;-69
2022/02/08 19:51:34;;;;;;;17.77;10.73;;;;;;;;;;5006654;28;20437;-69
2022/02/08 19:54:02;;;;;;;14.60;10.10;;;;;;;;;;5005667;28;20051;-69
2022/02/08 19:56:34;;;;;;;17.77;11.77;;;;;;;;;;5005260;28;20041;-69
2022/02/08 19:59:01;;;;;;;16.97;11.03;;;;;;;;;;5004391;28;20042;-69
2022/02/08 20:01:35;;;;;;;19.40;10.70;;;;;;;;;;4986673;28;20037;-69
2022/02/08 20:04:15;;;;;;;14.32;11.25;;;;;;;;;;4985671;28;20042;-69
2022/02/08 20:06:41;;;;;;;17.77;11.43;;;;;;;;;;4986980;28;20055;-69
2022/02/08 20:09:07;;;;;;;18.80;11.33;;;;;;;;;;4975662;28;20043;-69
2022/02/08 20:11:34;;;;;;;18.20;12.13;;;;;;;;;;4974196;28;20027;-69
2022/02/08 20:14:02;;;;;;;16.63;10.97;;;;;;;;;;4974367;28;20341;-69
2022/02/08 20:16:28;;;;;;;20.50;12.47;;;;;;;;;;4973778;28;20114;-69
2022/02/08 20:18:58;;;;;;;17.47;11.73;;;;;;;;;;4972352;28;20066;-69
2022/02/08 20:21:26;;;;;;;17.73;11.93;;;;;;;;;;4973765;28;20032;-70
2022/02/08 20:23:54;;;;;;;15.20;11.43;;;;;;;;;;4973289;28;20022;-69
2022/02/08 20:26:24;;;;;;;14.43;11.10;;;;;;;;;;4992819;28;20471;-69
2022/02/08 20:28:53;;;;;;;20.77;12.30;;;;;;;;;;4993070;28;20035;-69
2022/02/08 20:31:20;;;;;;;17.87;12.70;;;;;;;;;;4975354;28;20088;-70
2022/02/08 20:33:46;;;;;;;16.07;11.53;;;;;;;;;;4973892;28;20395;-69
2022/02/08 20:36:13;;;;;;;21.97;12.23;;;;;;;;;;4990125;28;20046;-69
2022/02/08 20:38:41;;;;;;;19.53;12.30;;;;;;;;;;4992959;28;20030;-70
2022/02/08 20:41:07;;;;;;;21.07;12.57;;;;;;;;;;4990959;28;20100;-69
2022/02/08 20:43:36;;;;;;;18.37;12.03;;;;;;;;;;4990802;28;20045;-69
2022/02/08 20:46:04;;;;;;;20.93;12.70;;;;;;;;;;4976169;28;20494;-69
2022/02/08 20:48:31;;;;;;;19.60;12.23;;;;;;;;;;4993186;28;20425;-70
2022/02/08 20:51:00;;;;;;;20.30;12.50;;;;;;;;;;4991913;28;20034;-69
2022/02/08 20:53:41;;;;;;;20.37;11.93;;;;;;;;;;4990928;28;20087;-69
2022/02/08 20:56:35;;;;;;;20.43;11.73;;;;;;;;;;4974527;28;20023;-69
2022/02/08 21:01:27;;;;;;;19.67;12.73;;;;;;;;;;4973565;28;20039;-69
2022/02/08 21:04:13;;;;;;;21.30;13.10;;;;;;;;;;4992110;28;20391;-69
2022/02/08 21:06:39;;;;;;;25.20;13.20;;;;;;;;;;5000658;28;20081;-69
2022/02/08 21:09:06;;;;;;;20.70;12.83;;;;;;;;;;5001941;28;20515;-69
2022/02/08 21:11:34;;;;;;;17.93;12.30;;;;;;;;;;4987117;28;20035;-69
2022/02/08 21:14:05;;;;;;;19.53;12.23;;;;;;;;;;4973176;28;20031;-69
2022/02/08 21:16:34;;;;;;;24.13;12.97;;;;;;;;;;4992008;28;20131;-70
2022/02/08 21:19:00;;;;;;;18.33;11.47;;;;;;;;;;4990897;28;20022;-69
2022/02/08 21:21:26;;;;;;;20.27;12.00;;;;;;;;;;4989945;28;20510;-70
2022/02/08 21:23:54;;;;;;;24.73;12.83;;;;;;;;;;4992307;28;20048;-70
2022/02/08 21:26:27;;;;;;;19.37;12.07;;;;;;;;;;4990969;28;20026;-70
2022/02/08 21:47:54;;;;;;;13.50;9.00;;;;;;;;;;4991492;28;20035;-70
2022/02/08 21:51:03;;;;;;;13.67;8.93;;;;;;;;;;4990246;28;20026;-70
2022/02/08 21:53:09;;;;;;;15.30;9.73;;;;;;;;;;4991300;28;20034;-70
2022/02/08 21:55:35;;;;;;;14.77;9.20;;;;;;;;;;4970769;28;20038;-70
2022/02/08 21:58:05;;;;;;;10.77;8.40;;;;;;;;;;4971872;28;20104;-70
2022/02/08 22:00:32;;;;;;;18.10;8.80;;;;;;;;;;4991444;28;20058;-70
2022/02/08 22:02:58;;;;;;;13.93;8.87;;;;;;;;;;4990767;28;20479;-70
2022/02/08 22:05:24;;;;;;;13.67;9.00;;;;;;;;;;4975140;28;20181;-70
2022/02/08 22:08:33;;;;;;;13.77;9.33;;;;;;;;;;4970769;28;20141;-70
2022/02/08 22:24:00;;;;;;;13.57;8.23;;;;;;;;;;4989471;28;20084;-70
2022/02/08 22:31:37;;;;;;;13.33;7.60;;;;;;;;;;4985485;28;20058;-70
2022/02/08 22:34:12;;;;;;;12.63;7.50;;;;;;;;;;4978348;28;20075;-70
2022/02/08 22:36:43;;;;;;;10.93;6.97;;;;;;;;;;4991175;28;20037;-70
2022/02/08 22:39:18;;;;;;;9.97;6.93;;;;;;;;;;4990146;28;20419;-70
2022/02/08 22:44:26;;;;;;;13.07;6.90;;;;;;;;;;4989795;28;20368;-71
2022/02/08 22:46:58;;;;;;;10.67;6.50;;;;;;;;;;4989783;28;20034;-70
2022/02/08 22:49:25;;;;;;;12.87;7.03;;;;;;;;;;4980279;28;20051;-70
2022/02/08 22:51:51;;;;;;;10.60;7.43;;;;;;;;;;4971468;28;20022;-71
2022/02/08 22:54:17;;;;;;;12.27;6.53;;;;;;;;;;4971206;28;20030;-71
2022/02/08 22:56:45;;;;;;;10.37;6.77;;;;;;;;;;4971313;28;20062;-70
2022/02/08 22:59:12;;;;;;;15.50;7.70;;;;;;;;;;4983530;28;20057;-70
2022/02/08 23:01:38;;;;;;;11.23;7.23;;;;;;;;;;4990812;28;20387;-70
2022/02/08 23:04:05;;;;;;;11.13;7.50;;;;;;;;;;4989789;28;20122;-71
2022/02/08 23:06:32;;;;;;;14.87;7.47;;;;;;;;;;4984202;28;20391;-70
2022/02/08 23:09:01;;;;;;;12.37;7.37;;;;;;;;;;4989372;28;20045;-70
2022/02/08 23:11:52;;;;;;;9.87;6.93;;;;;;;;;;4989304;28;20110;-70
2022/02/08 23:14:21;;;;;;;10.83;7.20;;;;;;;;;;4990480;28;20121;-70
2022/02/08 23:38:47;;;;;;;12.55;7.72;;;;;;;;;;4991271;28;20049;-69
2022/02/08 23:41:13;;;;;;;10.67;7.30;;;;;;;;;;4987494;28;20058;-70
2022/02/08 23:43:41;;;;;;;11.53;7.33;;;;;;;;;;4987422;28;20682;-69
2022/02/08 23:46:08;;;;;;;14.03;7.83;;;;;;;;;;4972756;28;20034;-70
2022/02/08 23:48:37;;;;;;;12.10;7.60;;;;;;;;;;4972558;28;20042;-70
2022/02/08 23:51:15;;;;;;;13.03;7.47;;;;;;;;;;4978595;28;20051;-70
2022/02/08 23:53:45;;;;;;;12.73;7.87;;;;;;;;;;4973273;28;20118;-70
2022/02/08 23:56:15;;;;;;;12.80;8.33;;;;;;;;;;4985189;28;20019;-70
2022/02/08 23:58:44;;;;;;;15.77;7.77;;;;;;;;;;4990651;28;20421;-69
